createdAt,value
2022-11-17T00:00:23.182Z,21.10
2022-11-17T00:02:50.481Z,18.73
2022-11-17T00:05:17.534Z,16.75
2022-11-17T00:07:45.690Z,18.35
2022-11-17T00:10:13.518Z,22.55
2022-11-17T00:12:58.771Z,18.73
2022-11-17T00:15:25.607Z,17.13
2022-11-17T00:18:15.714Z,19.10
2022-11-17T00:21:01.075Z,19.20
2022-11-17T00:23:47.446Z,18.63
2022-11-17T00:26:35.804Z,15.90
2022-11-17T00:29:05.013Z,18.98
2022-11-17T00:31:54.384Z,15.07
2022-11-17T00:34:22.949Z,18.85
2022-11-17T00:36:51.889Z,18.23
2022-11-17T00:39:21.349Z,15.48
2022-11-17T00:41:48.485Z,17.77
2022-11-17T00:44:15.632Z,20.38
2022-11-17T00:46:45.063Z,17.42
2022-11-17T00:49:12.279Z,20.75
2022-11-17T00:51:39.268Z,17.60
2022-11-17T00:54:10.096Z,19.25
2022-11-17T00:56:37.033Z,18.17
2022-11-17T00:59:04.160Z,18.27
2022-11-17T01:01:31.514Z,15.85
2022-11-17T01:04:04.688Z,16.17
2022-11-17T01:06:36.466Z,15.95
2022-11-17T01:09:15.411Z,19.00
2022-11-17T01:11:42.884Z,17.38
2022-11-17T01:14:14.861Z,17.40
2022-11-17T01:16:46.211Z,17.63
2022-11-17T01:19:16.741Z,14.65
2022-11-17T01:21:43.846Z,15.85
2022-11-17T01:24:11.752Z,16.52
2022-11-17T01:26:39.926Z,15.27
2022-11-17T01:29:07.522Z,14.23
2022-11-17T01:31:46.195Z,16.80
2022-11-17T01:34:13.584Z,15.73
2022-11-17T01:37:02.459Z,14.80
2022-11-17T01:39:30.913Z,17.65
2022-11-17T01:41:58.622Z,15.30
2022-11-17T01:44:50.523Z,15.07
2022-11-17T01:47:33.010Z,16.35
2022-11-17T01:50:26.754Z,14.00
2022-11-17T01:52:57.599Z,15.93
2022-11-17T01:55:28.730Z,13.55
2022-11-17T01:58:05.905Z,16.25
2022-11-17T02:00:32.964Z,17.55
2022-11-17T02:03:00.467Z,14.50
2022-11-17T02:05:54.525Z,15.60
2022-11-17T02:08:24.500Z,15.93
2022-11-17T02:10:53.366Z,14.13
2022-11-17T02:13:23.890Z,14.70
2022-11-17T02:15:50.652Z,14.98
2022-11-17T02:18:18.180Z,15.48
2022-11-17T02:21:18.954Z,14.18
2022-11-17T02:23:45.598Z,17.08
2022-11-17T02:29:37.854Z,9.70
2022-11-17T02:32:13.584Z,7.25
2022-11-17T02:34:54.029Z,9.82
2022-11-17T02:37:42.519Z,6.40
2022-11-17T02:40:14.136Z,6.30
2022-11-17T02:43:03.507Z,7.90
2022-11-17T02:45:40.341Z,6.53
2022-11-17T02:48:14.592Z,9.18
2022-11-17T02:50:44.798Z,7.60
2022-11-17T02:53:13.474Z,6.93
2022-11-17T02:55:40.392Z,6.68
2022-11-17T02:58:12.570Z,7.60
2022-11-17T03:00:50.858Z,6.00
2022-11-17T03:03:32.585Z,7.22
2022-11-17T03:06:20.156Z,8.00
2022-11-17T03:08:59.947Z,7.75
2022-11-17T03:11:42.660Z,9.75
2022-11-17T03:14:22.998Z,9.85
2022-11-17T03:17:05.625Z,7.50
2022-11-17T03:19:35.646Z,7.50
2022-11-17T03:22:15.037Z,9.00
2022-11-17T03:24:51.092Z,7.60
2022-11-17T03:27:32.810Z,8.57
2022-11-17T03:30:03.403Z,9.48
2022-11-17T03:32:36.266Z,9.13
2022-11-17T03:35:11.099Z,8.85
2022-11-17T03:37:43.188Z,9.00
2022-11-17T03:40:13.720Z,9.18
2022-11-17T03:42:52.525Z,10.55
2022-11-17T03:45:26.678Z,10.02
2022-11-17T03:48:03.010Z,9.07
2022-11-17T03:50:37.897Z,9.45
2022-11-17T03:53:05.909Z,9.45
2022-11-17T03:55:57.833Z,10.80
2022-11-17T03:58:29.735Z,11.18
2022-11-17T04:01:00.022Z,10.18
2022-11-17T04:03:32.179Z,11.05
2022-11-17T04:05:59.943Z,11.73
2022-11-17T04:08:29.629Z,10.65
2022-11-17T04:11:18.522Z,12.02
2022-11-17T04:14:03.737Z,10.13
2022-11-17T04:16:30.758Z,9.93
2022-11-17T04:18:58.825Z,8.68
2022-11-17T04:21:26.288Z,10.60
2022-11-17T04:23:53.038Z,9.93
2022-11-17T04:29:05.274Z,9.45
2022-11-17T04:31:32.089Z,9.63
2022-11-17T04:34:06.574Z,11.00
2022-11-17T04:36:40.688Z,11.55
2022-11-17T04:39:07.569Z,11.70
2022-11-17T04:41:57.247Z,9.63
2022-11-17T04:44:26.683Z,12.80
2022-11-17T04:46:54.618Z,11.68
2022-11-17T04:49:23.024Z,11.25
2022-11-17T04:51:50.766Z,11.95
2022-11-17T04:54:20.789Z,10.30
2022-11-17T04:56:48.335Z,10.48
2022-11-17T04:59:15.091Z,11.98
2022-11-17T05:01:42.340Z,14.77
2022-11-17T05:04:11.266Z,12.23
2022-11-17T05:06:43.641Z,13.60
2022-11-17T05:09:17.283Z,9.20
2022-11-17T05:12:03.083Z,13.13
2022-11-17T05:14:30.078Z,12.63
2022-11-17T05:17:11.002Z,11.75
2022-11-17T05:19:46.624Z,11.73
2022-11-17T05:22:36.200Z,13.20
2022-11-17T05:25:04.290Z,14.57
2022-11-17T05:27:31.102Z,12.80
2022-11-17T05:29:58.079Z,13.70
2022-11-17T05:32:25.218Z,11.65
2022-11-17T05:34:51.858Z,13.82
2022-11-17T05:39:45.116Z,15.63
2022-11-17T05:42:14.878Z,14.18
2022-11-17T05:44:41.611Z,27.13
2022-11-17T05:49:34.917Z,11.32
2022-11-17T05:52:01.621Z,14.95
2022-11-17T05:57:05.140Z,12.57
2022-11-17T05:59:50.080Z,15.70
2022-11-17T06:02:21.274Z,15.48
2022-11-17T06:04:50.147Z,14.75
2022-11-17T06:07:18.151Z,17.52
2022-11-17T06:09:46.075Z,15.73
2022-11-17T06:12:13.350Z,14.93
2022-11-17T06:14:40.290Z,19.35
2022-11-17T06:17:23.179Z,17.73
2022-11-17T06:20:05.131Z,15.63
2022-11-17T06:22:33.297Z,14.10
2022-11-17T06:25:01.993Z,14.73
2022-11-17T06:27:31.905Z,18.52
2022-11-17T06:30:01.630Z,15.75
2022-11-17T06:32:28.669Z,18.13
2022-11-17T06:34:56.643Z,19.13
2022-11-17T06:37:24.712Z,19.40
2022-11-17T06:39:51.579Z,14.73
2022-11-17T06:42:18.634Z,15.07
2022-11-17T06:44:45.796Z,15.40
2022-11-17T06:47:12.432Z,14.35
2022-11-17T06:52:05.950Z,12.73
2022-11-17T06:57:00.034Z,13.57
2022-11-17T06:59:26.760Z,12.68
2022-11-17T07:04:19.995Z,13.55
2022-11-17T07:09:13.164Z,14.77
2022-11-17T07:11:39.885Z,17.00
2022-11-17T07:16:33.089Z,11.13
2022-11-17T07:19:03.419Z,12.23
2022-11-17T07:21:30.136Z,12.98
2022-11-17T07:26:26.889Z,12.77
2022-11-17T07:28:53.616Z,12.27
2022-11-17T07:31:20.275Z,18.60
2022-11-17T07:33:47.256Z,15.65
2022-11-17T07:36:17.321Z,15.35
2022-11-17T07:38:44.248Z,16.00
2022-11-17T07:41:13.846Z,17.20
2022-11-17T07:43:41.046Z,16.67
2022-11-17T07:46:12.519Z,17.15
2022-11-17T07:48:40.399Z,15.63
2022-11-17T07:51:07.323Z,15.82
2022-11-17T07:53:35.161Z,18.65
2022-11-17T07:56:07.501Z,17.33
2022-11-17T07:58:34.982Z,15.95
2022-11-17T08:01:14.630Z,15.98
2022-11-17T08:03:42.896Z,17.27
2022-11-17T08:06:10.262Z,15.90
2022-11-17T08:08:38.312Z,16.92
2022-11-17T08:11:08.672Z,15.95
2022-11-17T08:13:36.449Z,14.43
2022-11-17T08:16:03.662Z,15.40
2022-11-17T08:18:30.919Z,14.85
2022-11-17T08:21:02.510Z,18.35
2022-11-17T08:23:29.491Z,18.08
2022-11-17T08:25:56.308Z,15.65
2022-11-17T08:28:23.567Z,16.95
2022-11-17T08:30:50.630Z,20.27
2022-11-17T08:33:17.429Z,18.05
2022-11-17T08:35:44.301Z,18.20
2022-11-17T08:38:15.405Z,15.50
2022-11-17T08:40:42.534Z,18.10
2022-11-17T08:43:09.669Z,18.58
2022-11-17T08:45:36.313Z,17.25
2022-11-17T08:48:04.114Z,18.85
2022-11-17T08:50:30.826Z,17.77
2022-11-17T08:52:57.611Z,15.70
2022-11-17T08:57:53.270Z,16.70
2022-11-17T09:00:21.872Z,18.17
2022-11-17T09:02:49.417Z,19.65
2022-11-17T09:05:16.109Z,15.93
2022-11-17T09:10:11.223Z,17.73
2022-11-17T09:12:38.318Z,18.00
2022-11-17T09:15:06.303Z,16.65
2022-11-17T09:17:33.039Z,20.77
2022-11-17T09:20:00.095Z,16.70
2022-11-17T09:22:26.858Z,14.88
2022-11-17T09:27:20.290Z,19.60
2022-11-17T09:32:16.841Z,14.90
2022-11-17T09:34:43.573Z,15.20
2022-11-17T09:37:10.370Z,18.30
2022-11-17T09:39:40.730Z,18.02
2022-11-17T09:42:19.039Z,19.58
2022-11-17T09:45:03.927Z,16.85
2022-11-17T09:48:33.567Z,17.23
2022-11-17T09:50:55.031Z,19.00
2022-11-17T09:53:28.201Z,16.35
2022-11-17T09:56:03.016Z,18.60
2022-11-17T09:58:51.018Z,19.65
2022-11-17T10:01:20.108Z,17.35
2022-11-17T10:03:49.489Z,20.60
2022-11-17T10:06:21.432Z,17.90
2022-11-17T10:09:31.181Z,16.35
2022-11-17T10:12:14.717Z,18.42
2022-11-17T10:14:44.448Z,19.65
2022-11-17T10:17:12.815Z,15.90
2022-11-17T10:19:40.144Z,16.48
2022-11-17T10:22:07.153Z,17.30
2022-11-17T10:24:35.109Z,20.77
2022-11-17T10:27:07.124Z,19.23
2022-11-17T10:29:34.072Z,19.63
2022-11-17T10:32:09.591Z,16.25
2022-11-17T10:34:41.399Z,19.25
2022-11-17T10:37:20.127Z,19.73
2022-11-17T10:39:48.254Z,19.00
2022-11-17T10:42:21.312Z,18.13
2022-11-17T10:45:12.417Z,22.92
2022-11-17T10:47:40.549Z,18.15
2022-11-17T10:50:24.566Z,20.38
2022-11-17T10:52:53.673Z,19.42
2022-11-17T10:55:26.824Z,18.77
2022-11-17T10:57:57.905Z,15.52
2022-11-17T11:00:29.837Z,17.17
2022-11-17T11:03:21.521Z,16.90
2022-11-17T11:05:55.409Z,14.45
2022-11-17T11:08:25.141Z,20.65
2022-11-17T11:11:02.309Z,18.33
2022-11-17T11:13:40.676Z,15.02
2022-11-17T11:16:12.114Z,14.52
2022-11-17T11:18:39.874Z,15.05
2022-11-17T11:21:23.563Z,15.68
2022-11-17T11:24:24.274Z,16.70
2022-11-17T11:27:06.283Z,15.82
2022-11-17T11:30:01.330Z,17.67
2022-11-17T11:32:40.850Z,18.85
2022-11-17T11:35:38.680Z,17.23
2022-11-17T11:38:30.802Z,16.40
2022-11-17T11:41:36.459Z,17.50
2022-11-17T11:44:21.582Z,22.67
2022-11-17T11:47:07.246Z,18.02
2022-11-17T11:49:37.066Z,16.30
2022-11-17T11:52:10.704Z,19.95
2022-11-17T11:54:51.099Z,16.05
2022-11-17T11:57:25.021Z,17.83
2022-11-17T12:00:13.874Z,20.90
2022-11-17T12:02:40.707Z,19.45
2022-11-17T12:05:27.502Z,18.00
2022-11-17T12:08:32.198Z,17.17
2022-11-17T12:11:26.317Z,21.05
2022-11-17T12:13:57.742Z,15.75
2022-11-17T12:16:34.619Z,16.08
2022-11-17T12:19:01.923Z,19.25
2022-11-17T12:21:30.662Z,18.30
2022-11-17T12:24:18.812Z,19.55
2022-11-17T12:26:45.659Z,17.52
2022-11-17T12:29:21.595Z,16.17
2022-11-17T12:31:57.486Z,18.75
2022-11-17T12:34:37.229Z,15.35
2022-11-17T12:37:26.288Z,16.65
2022-11-17T12:39:52.966Z,19.20
2022-11-17T12:42:19.647Z,16.55
2022-11-17T12:47:15.792Z,15.98
2022-11-17T12:52:21.024Z,16.20
2022-11-17T12:55:01.056Z,18.20
2022-11-17T12:57:32.504Z,16.17
2022-11-17T13:00:11.956Z,16.65
2022-11-17T13:02:57.712Z,17.60
2022-11-17T13:05:28.571Z,16.80
2022-11-17T13:08:10.369Z,15.15
2022-11-17T13:10:37.219Z,16.08
2022-11-17T13:13:16.235Z,16.33
2022-11-17T13:15:44.271Z,18.88
2022-11-17T13:18:23.619Z,16.65
2022-11-17T13:20:50.261Z,16.90
2022-11-17T13:25:51.382Z,16.73
2022-11-17T13:28:26.947Z,19.02
2022-11-17T13:30:53.819Z,16.15
2022-11-17T13:33:23.359Z,18.23
2022-11-17T13:35:51.557Z,21.13
2022-11-17T13:38:20.181Z,18.08
2022-11-17T13:40:49.326Z,20.60
2022-11-17T13:43:25.162Z,20.00
2022-11-17T13:45:53.894Z,21.20
2022-11-17T13:48:30.365Z,22.08
2022-11-17T13:51:16.107Z,22.67
2022-11-17T13:53:45.365Z,24.33
2022-11-17T13:56:36.581Z,23.25
2022-11-17T13:59:18.569Z,26.40
2022-11-17T14:01:45.711Z,21.58
2022-11-17T14:04:20.052Z,24.77
2022-11-17T14:06:54.393Z,22.35
2022-11-17T14:09:22.621Z,26.85
2022-11-17T14:11:50.477Z,20.75
2022-11-17T14:14:32.479Z,26.35
2022-11-17T14:17:11.144Z,29.25
2022-11-17T14:22:09.823Z,33.58
2022-11-17T14:24:37.796Z,27.15
2022-11-17T14:27:34.977Z,24.92
2022-11-17T14:30:01.896Z,26.23
2022-11-17T14:32:28.717Z,27.33
2022-11-17T14:34:55.348Z,26.88
2022-11-17T14:37:23.385Z,28.33
2022-11-17T14:39:50.057Z,29.77
2022-11-17T14:44:43.553Z,25.42
2022-11-17T14:49:36.741Z,23.42
2022-11-17T14:54:30.071Z,23.98
2022-11-17T14:59:23.490Z,21.88
2022-11-17T15:01:50.153Z,26.15
2022-11-17T15:07:03.590Z,22.02
2022-11-17T15:09:30.340Z,24.33
2022-11-17T15:14:23.591Z,22.98
2022-11-17T15:19:18.162Z,24.48
2022-11-17T15:21:44.972Z,21.17
2022-11-17T15:24:11.684Z,25.88
2022-11-17T15:29:05.240Z,25.33
2022-11-17T15:31:31.920Z,24.40
2022-11-17T15:36:26.389Z,22.33
2022-11-17T15:38:53.590Z,25.65
2022-11-17T15:41:21.265Z,27.08
2022-11-17T15:43:48.061Z,22.65
2022-11-17T15:46:17.469Z,20.38
2022-11-17T15:48:46.318Z,20.42
2022-11-17T15:51:18.037Z,20.00
2022-11-17T15:53:46.800Z,22.13
2022-11-17T15:56:22.756Z,21.77
2022-11-17T15:58:57.828Z,18.30
2022-11-17T16:01:25.070Z,18.73
2022-11-17T16:03:52.814Z,18.15
2022-11-17T16:06:19.958Z,23.88
2022-11-17T16:08:46.698Z,23.63
2022-11-17T16:13:41.051Z,19.73
2022-11-17T16:16:12.242Z,22.67
2022-11-17T16:18:42.936Z,20.20
2022-11-17T16:21:14.243Z,19.27
2022-11-17T16:23:43.131Z,22.25
2022-11-17T16:26:11.786Z,22.08
2022-11-17T16:28:42.064Z,20.88
2022-11-17T16:31:26.611Z,20.23
2022-11-17T16:33:56.023Z,20.75
2022-11-17T16:36:24.878Z,22.10
2022-11-17T16:39:01.878Z,24.13
2022-11-17T16:41:32.427Z,21.23
2022-11-17T16:43:59.831Z,21.23
2022-11-17T16:46:32.510Z,20.92
